Time;durP1;ratioP1;P1;durP2;ratioP2;P2;SDS_P1;SDS_P2;PMS_P1;PMS_P2;Temp;Humidity;BMP_temperature;BMP_pressure;BME280_temperature;BME280_humidity;BME280_pressure;Samples;Min_cycle;Max_cycle;Signal;HPM_P1;HPM_P2
2021/11/08 00:00:44;;;;;;;72.68;33.33;;;;;;;14.21;84.37;99931.78;5051702;28;20016;-48
2021/11/08 00:03:11;;;;;;;71.93;33.35;;;;;;;13.75;85.04;99940.28;5051598;28;20024;-51
2021/11/08 00:05:41;;;;;;;74.57;34.85;;;;;;;14.29;85.13;99936.03;5051736;28;20032;-51
2021/11/08 00:08:06;;;;;;;76.18;35.75;;;;;;;14.72;83.09;99937.81;5051896;28;20330;-49
2021/11/08 00:10:34;;;;;;;68.75;33.22;;;;;;;13.79;84.90;99944.16;5051818;28;20052;-49
2021/11/08 00:13:01;;;;;;;69.50;34.78;;;;;;;13.64;87.18;99931.91;5051512;28;20028;-50
2021/11/08 00:15:33;;;;;;;72.75;36.05;;;;;;;14.49;83.34;99927.78;5051269;28;20025;-50
2021/11/08 00:18:11;;;;;;;69.78;31.92;;;;;;;13.89;82.93;99931.91;5051810;28;20134;-49
2021/11/08 00:23:09;;;;;;;79.10;35.67;;;;;;;14.01;84.41;99923.97;5051535;28;20079;-51
2021/11/08 00:25:36;;;;;;;67.70;32.85;;;;;;;13.57;85.31;99900.94;5051372;28;20408;-49
2021/11/08 00:28:01;;;;;;;66.78;31.95;;;;;;;13.14;86.67;99923.03;5051155;28;20052;-49
2021/11/08 00:30:30;;;;;;;79.18;35.38;;;;;;;13.26;88.75;99921.28;5050949;28;20021;-50
2021/11/08 00:32:56;;;;;;;88.97;37.93;;;;;;;14.14;86.09;99916.84;5050541;28;20108;-52
2021/11/08 00:35:22;;;;;;;73.80;32.78;;;;;;;13.36;85.97;99921.66;5051299;28;20759;-50
2021/11/08 00:37:47;;;;;;;69.95;33.45;;;;;;;13.17;86.51;99919.91;5051112;28;20052;-52
2021/11/08 00:40:13;;;;;;;84.35;37.00;;;;;;;14.00;85.15;99908.94;5051068;28;20040;-48
2021/11/08 00:42:38;;;;;;;75.82;35.25;;;;;;;13.98;84.47;99907.56;5050845;28;20070;-50
2021/11/08 00:45:04;;;;;;;74.80;34.13;;;;;;;13.10;85.47;99912.78;5051389;28;20044;-50
2021/11/08 00:47:30;;;;;;;80.75;36.33;;;;;;;13.15;88.33;99906.75;5050942;28;20098;-51
2021/11/08 00:49:56;;;;;;;83.35;37.58;;;;;;;13.98;85.82;99900.34;5050705;28;20025;-46
2021/11/08 00:52:23;;;;;;;72.65;33.85;;;;;;;13.51;85.28;99894.59;5050894;28;20017;-49
2021/11/08 00:54:49;;;;;;;71.20;33.63;;;;;;;13.11;86.90;99897.56;5050718;28;20133;-51
2021/11/08 00:57:19;;;;;;;83.60;36.15;;;;;;;13.92;85.30;99895.03;5050791;28;20097;-49
2021/11/08 00:59:44;;;;;;;78.82;34.88;;;;;;;14.06;85.54;99883.97;5050714;28;20032;-51
2021/11/08 01:02:10;;;;;;;69.43;32.08;;;;;;;13.37;85.73;99885.06;5050780;28;20025;-48
2021/11/08 01:04:37;;;;;;;74.95;36.55;;;;;;;13.42;87.70;99887.88;5050623;28;20401;-49
2021/11/08 01:07:02;;;;;;;81.05;37.20;;;;;;;14.36;83.82;99883.22;5050229;28;20017;-49
2021/11/08 01:09:30;;;;;;;69.85;33.28;;;;;;;13.77;84.43;99880.19;5050776;28;20021;-52
2021/11/08 01:11:56;;;;;;;78.57;33.10;;;;;;;13.38;86.42;99876.00;5050496;28;20032;-49
2021/11/08 01:14:22;;;;;;;82.63;35.85;;;;;;;14.00;85.95;99876.84;5050505;28;20135;-48
2021/11/08 01:16:54;;;;;;;74.93;35.50;;;;;;;14.22;85.04;99871.03;5050244;28;20564;-49
2021/11/08 01:19:20;;;;;;;71.05;34.17;;;;;;;13.70;84.64;99874.06;5050205;28;20107;-50
2021/11/08 01:21:45;;;;;;;78.32;36.03;;;;;;;13.66;87.60;99868.34;5050187;28;20112;-50
2021/11/08 01:24:11;;;;;;;83.53;36.63;;;;;;;14.50;84.13;99869.69;5049915;28;20025;-49
2021/11/08 01:26:36;;;;;;;73.43;34.08;;;;;;;14.18;84.08;99873.34;5050120;28;20029;-49
2021/11/08 01:29:02;;;;;;;69.65;33.78;;;;;;;13.73;84.80;99862.94;5050245;28;20024;-50
2021/11/08 01:31:27;;;;;;;74.00;35.60;;;;;;;14.24;85.58;99858.25;5050335;28;20424;-50
2021/11/08 01:33:54;;;;;;;77.32;35.55;;;;;;;14.47;83.91;99861.06;5049219;28;20056;-52
2021/11/08 01:36:33;;;;;;;67.97;33.15;;;;;;;13.87;84.37;99858.25;5050029;28;20113;-49
2021/11/08 01:39:12;;;;;;;82.00;35.92;;;;;;;13.78;86.36;99865.75;5050030;28;20522;-51
2021/11/08 01:41:38;;;;;;;77.97;35.08;;;;;;;14.55;83.47;99859.13;5050047;28;20017;-50
2021/11/08 01:44:04;;;;;;;70.68;32.33;;;;;;;13.78;84.29;99855.06;5050072;28;20495;-52
2021/11/08 01:46:29;;;;;;;74.00;33.15;;;;;;;13.51;85.27;99851.81;5049770;28;20021;-51
2021/11/08 01:48:55;;;;;;;75.93;34.03;;;;;;;14.11;85.90;99847.69;5050049;28;20069;-49
2021/11/08 01:51:20;;;;;;;80.80;35.17;;;;;;;14.52;84.06;99855.00;5049377;28;20086;-51
2021/11/08 01:53:46;;;;;;;65.57;32.33;;;;;;;13.75;84.54;99847.50;5050001;28;20049;-49
2021/11/08 01:56:12;;;;;;;73.70;33.45;;;;;;;13.87;86.41;99852.91;5049546;28;20020;-49
2021/11/08 01:58:38;;;;;;;78.15;34.85;;;;;;;14.57;84.46;99847.16;5049891;28;20021;-50
2021/11/08 02:01:04;;;;;;;68.18;31.77;;;;;;;13.82;84.65;99845.56;5050029;28;20024;-51
2021/11/08 02:03:30;;;;;;;66.13;32.13;;;;;;;13.65;85.36;99847.16;5049557;28;20033;-51
2021/11/08 02:05:55;;;;;;;77.32;33.45;;;;;;;14.48;83.57;99843.13;5049299;28;20036;-48
2021/11/08 02:08:22;;;;;;;77.07;33.60;;;;;;;14.48;83.45;99833.22;5049397;28;20032;-50
2021/11/08 02:10:48;;;;;;;64.13;31.23;;;;;;;14.02;82.82;99836.50;5051323;28;20021;-52
2021/11/08 02:13:14;;;;;;;68.70;32.83;;;;;;;13.96;85.68;99827.50;5053451;28;20032;-49
2021/11/08 02:15:40;;;;;;;65.63;32.05;;;;;;;14.67;83.24;99830.53;5053536;28;20037;-48
2021/11/08 02:18:06;;;;;;;66.05;30.80;;;;;;;14.36;82.28;99837.72;5053791;28;20028;-48
2021/11/08 02:20:32;;;;;;;61.95;29.05;;;;;;;13.63;84.63;99836.72;5053429;28;20104;-47
2021/11/08 02:23:00;;;;;;;67.60;30.63;;;;;;;14.15;84.28;99833.66;5053466;28;20098;-50
2021/11/08 02:25:26;;;;;;;64.05;30.67;;;;;;;14.45;82.99;99831.00;5053193;28;20033;-49
2021/11/08 02:27:52;;;;;;;57.50;28.35;;;;;;;14.05;83.14;99834.19;5053352;28;20020;-51
2021/11/08 02:30:19;;;;;;;61.30;29.73;;;;;;;13.96;85.29;99832.03;5053176;28;20174;-51
2021/11/08 02:32:46;;;;;;;63.55;30.33;;;;;;;14.73;81.81;99826.13;5052506;28;20461;-48
2021/11/08 02:35:13;;;;;;;57.58;27.70;;;;;;;13.94;83.44;99823.44;5052754;28;20060;-48
2021/11/08 02:37:39;;;;;;;56.97;28.55;;;;;;;13.67;85.19;99829.88;5053416;28;20021;-50
2021/11/08 02:40:05;;;;;;;66.25;29.85;;;;;;;14.14;85.46;99831.22;5053076;28;20571;-50
2021/11/08 02:42:31;;;;;;;58.50;28.60;;;;;;;14.56;83.62;99833.94;5053213;28;20119;-51
2021/11/08 02:44:58;;;;;;;55.22;27.33;;;;;;;13.77;83.78;99824.00;5052990;28;20024;-49
2021/11/08 02:47:23;;;;;;;65.18;30.00;;;;;;;13.78;86.60;99827.50;5053074;28;20031;-48
2021/11/08 02:49:51;;;;;;;64.22;29.90;;;;;;;14.54;82.70;99820.78;5052786;28;20029;-50
2021/11/08 02:52:23;;;;;;;57.17;27.15;;;;;;;14.02;82.77;99823.94;5052785;28;20388;-48
2021/11/08 02:54:51;;;;;;;59.97;28.17;;;;;;;13.78;84.03;99816.78;5052801;28;20096;-48
2021/11/08 02:57:20;;;;;;;65.50;28.83;;;;;;;14.15;84.30;99819.47;5051420;28;20433;-51
2021/11/08 02:59:46;;;;;;;59.05;29.48;;;;;;;14.34;84.01;99818.41;5052634;28;20059;-52
2021/11/08 03:02:14;;;;;;;56.22;27.65;;;;;;;13.83;83.23;99812.41;5052669;28;20071;-52
2021/11/08 03:04:44;;;;;;;59.53;28.63;;;;;;;14.01;85.17;99813.44;5052740;28;20037;-49
2021/11/08 03:07:10;;;;;;;;;;;;;;;14.72;82.30;99809.25;5053054;28;20025;-50
2021/11/08 03:09:39;;;;;;;61.13;26.35;;;;;;;13.96;83.32;99802.63;5052252;28;19913;-48
2021/11/08 03:12:14;;;;;;;53.63;26.33;;;;;;;13.83;83.34;99801.72;5052627;28;20048;-51
2021/11/08 03:14:46;;;;;;;65.28;29.77;;;;;;;14.56;82.60;99801.81;5052294;28;20032;-51
2021/11/08 03:17:17;;;;;;;61.58;29.05;;;;;;;14.46;82.19;99797.81;5052361;28;20079;-52
2021/11/08 03:19:44;;;;;;;55.55;26.80;;;;;;;13.60;83.20;99777.50;5052628;28;20480;-49
2021/11/08 03:22:15;;;;;;;58.92;28.35;;;;;;;13.99;84.37;99786.09;5051039;28;20059;-50
2021/11/08 03:27:23;;;;;;;60.25;27.45;;;;;;;13.93;82.81;99784.31;5052253;28;20021;-50
2021/11/08 03:29:49;;;;;;;61.28;29.45;;;;;;;13.73;86.11;99785.38;5051945;28;20097;-50
2021/11/08 03:32:16;;;;;;;63.75;29.48;;;;;;;14.37;83.25;99793.03;5052114;28;20098;-48
2021/11/08 03:35:04;;;;;;;54.75;25.40;;;;;;;13.98;82.60;99779.13;5051487;28;20400;-50
2021/11/08 03:37:41;;;;;;;59.50;25.65;;;;;;;13.69;83.66;99776.19;5051822;28;20091;-50
2021/11/08 03:40:09;;;;;;;64.30;28.15;;;;;;;14.36;82.98;99786.06;5051960;28;20036;-50
2021/11/08 03:42:34;;;;;;;61.85;27.38;;;;;;;14.36;82.36;99781.50;5051427;28;20064;-49
2021/11/08 03:45:00;;;;;;;61.50;27.38;;;;;;;13.68;82.63;99779.88;5051822;28;20481;-49
2021/11/08 03:47:26;;;;;;;62.22;28.05;;;;;;;13.62;86.48;99773.56;5051585;28;20580;-51
2021/11/08 03:49:51;;;;;;;63.83;27.77;;;;;;;14.45;83.66;99774.78;5050463;28;20056;-50
2021/11/08 03:52:17;;;;;;;58.58;26.55;;;;;;;13.73;83.72;99780.03;5051842;28;20025;-47
2021/11/08 03:54:43;;;;;;;61.22;26.40;;;;;;;13.42;84.25;99773.78;5051789;28;20190;-49
2021/11/08 03:57:08;;;;;;;61.20;27.73;;;;;;;14.06;84.29;99770.78;5051685;28;20028;-51
2021/11/08 03:59:34;;;;;;;65.97;27.20;;;;;;;14.52;81.94;99769.31;5051538;28;20547;-50
2021/11/08 04:01:59;;;;;;;58.75;26.13;;;;;;;13.71;83.28;99767.91;5051298;28;20071;-51
2021/11/08 04:04:24;;;;;;;67.68;29.73;;;;;;;13.67;85.85;99763.03;5051592;28;20047;-50
2021/11/08 04:06:50;;;;;;;68.05;31.90;;;;;;;14.39;82.67;99758.81;5051667;28;20032;-49
2021/11/08 04:09:17;;;;;;;62.50;28.27;;;;;;;14.06;81.49;99758.22;5051394;28;20028;-51
2021/11/08 04:11:43;;;;;;;77.03;34.55;;;;;;;13.64;83.63;99752.75;5051186;28;20055;-50
2021/11/08 04:14:09;;;;;;;65.40;30.13;;;;;;;14.09;83.60;99759.63;5051303;28;20056;-52
2021/11/08 04:16:35;;;;;;;70.57;29.20;;;;;;;14.44;82.63;99745.56;5051254;28;20128;-49
2021/11/08 04:19:01;;;;;;;55.85;25.42;;;;;;;13.69;82.99;99750.25;5051163;28;20035;-51
2021/11/08 04:21:27;;;;;;;58.70;26.92;;;;;;;13.43;85.98;99751.34;5050922;28;20025;-48
2021/11/08 04:23:53;;;;;;;63.17;26.67;;;;;;;14.30;82.46;99750.31;5051271;28;20079;-49
2021/11/08 04:26:19;;;;;;;54.35;24.55;;;;;;;13.99;81.74;99765.53;5051087;28;20025;-49
2021/11/08 04:28:57;;;;;;;67.47;26.67;;;;;;;13.64;83.26;99757.31;5051177;28;20021;-51
2021/11/08 04:31:23;;;;;;;71.30;28.75;;;;;;;14.02;84.24;99754.38;5050927;28;20020;-48
2021/11/08 04:33:53;;;;;;;61.28;26.55;;;;;;;14.12;83.23;99753.00;5048844;28;20047;-55
2021/11/08 04:55:25;;;;;;;63.47;25.90;;;;;;;14.28;95.13;99761.22;5038226;28;20037;-50
2021/11/08 05:29:59;;;;;;;58.03;25.88;;;;;;;13.36;83.39;99761.28;5050404;28;20055;-47
2021/11/08 05:32:27;;;;;;;71.32;27.08;;;;;;;14.02;82.34;99770.41;5049919;28;20033;-47
2021/11/08 05:34:53;;;;;;;57.65;26.60;;;;;;;13.94;81.31;99773.41;5035861;28;20075;-47
2021/11/08 05:37:18;;;;;;;54.53;24.98;;;;;;;13.48;81.89;99774.75;5034012;28;20025;-51
2021/11/08 05:39:48;;;;;;;62.67;27.08;;;;;;;13.31;84.04;99774.50;5050080;28;20100;-48
2021/11/08 05:42:14;;;;;;;66.75;26.75;;;;;;;13.80;83.20;99766.56;5050142;28;20370;-50
2021/11/08 05:44:41;;;;;;;57.78;25.23;;;;;;;13.59;82.86;99760.63;5049417;28;20128;-51
2021/11/08 05:47:06;;;;;;;60.83;26.23;;;;;;;13.30;83.40;99771.00;5049634;28;20071;-48
2021/11/08 05:49:32;;;;;;;60.22;26.85;;;;;;;13.41;85.00;99764.13;5049841;28;20051;-48
2021/11/08 05:51:57;;;;;;;61.08;26.80;;;;;;;14.19;81.92;99765.25;5049214;28;20025;-48
2021/11/08 05:54:23;;;;;;;63.60;28.20;;;;;;;14.63;79.44;99763.22;5048315;28;20028;-47
2021/11/08 06:51:05;;;;;;;57.72;26.50;;;;;;;15.03;77.18;99775.16;5048376;28;20102;-47
2021/11/08 06:53:32;;;;;;;64.22;27.80;;;;;;;14.75;78.72;99773.94;5048151;28;20021;-48
2021/11/08 06:55:58;;;;;;;66.20;29.00;;;;;;;15.39;75.99;99775.97;5049204;28;20333;-48
2021/11/08 06:58:26;;;;;;;66.18;27.77;;;;;;;14.92;78.18;99770.59;5052213;28;20069;-51
2021/11/08 07:00:51;;;;;;;68.65;30.35;;;;;;;14.52;81.30;99769.31;5052211;28;20137;-48
2021/11/08 07:03:17;;;;;;;69.68;30.40;;;;;;;15.32;76.28;99772.59;5051628;28;20029;-48
2021/11/08 07:05:42;;;;;;;67.25;28.98;;;;;;;14.60;79.49;99778.91;5052065;28;20147;-50
2021/11/08 07:08:10;;;;;;;62.70;30.42;;;;;;;14.12;82.95;99769.88;5052078;28;20020;-47
2021/11/08 07:10:36;;;;;;;72.88;34.97;;;;;;;14.71;79.63;99763.94;5051903;28;20369;-47
2021/11/08 07:13:02;;;;;;;69.93;31.55;;;;;;;14.11;81.87;99770.09;5051835;28;20067;-48
2021/11/08 07:15:28;;;;;;;68.70;32.13;;;;;;;13.98;83.63;99768.44;5051907;28;20468;-39
2021/11/08 07:17:53;;;;;;;67.68;32.38;;;;;;;14.76;80.01;99764.06;5051741;28;20055;-39
2021/11/08 07:20:19;;;;;;;69.32;30.67;;;;;;;14.64;79.30;99761.34;5051865;28;20021;-38
2021/11/08 07:22:45;;;;;;;74.18;30.70;;;;;;;14.28;82.55;99755.06;5051613;28;20057;-39
2021/11/08 07:25:11;;;;;;;68.88;29.50;;;;;;;14.73;81.50;99751.94;5051967;28;20056;-39
2021/11/08 07:27:36;;;;;;;70.90;29.88;;;;;;;15.10;79.42;99750.91;5051480;28;20021;-41
2021/11/08 07:30:03;;;;;;;63.50;28.92;;;;;;;14.67;80.98;99750.19;5051638;28;20434;-39
2021/11/08 07:32:28;;;;;;;75.90;32.38;;;;;;;15.34;78.80;99747.19;5051291;28;20027;-38
2021/11/08 07:34:55;;;;;;;73.13;31.58;;;;;;;15.68;76.05;99739.31;5051402;28;20064;-39
2021/11/08 07:37:21;;;;;;;70.70;32.45;;;;;;;14.85;78.47;99739.38;5050976;28;20092;-38
2021/11/08 07:39:46;;;;;;;75.90;33.85;;;;;;;14.80;79.12;99733.91;5051487;28;20415;-39
2021/11/08 07:42:12;;;;;;;75.47;33.70;;;;;;;15.47;76.76;99735.41;5051247;28;20108;-38
2021/11/08 07:44:38;;;;;;;75.43;33.88;;;;;;;14.81;78.35;99732.03;5051702;28;20088;-39
2021/11/08 07:47:03;;;;;;;81.07;34.38;;;;;;;15.10;78.40;99738.34;5051453;28;20504;-39
2021/11/08 07:49:29;;;;;;;71.82;32.65;;;;;;;15.41;76.66;99706.84;5051218;28;20032;-39
2021/11/08 07:51:54;;;;;;;75.47;33.05;;;;;;;14.89;78.78;99730.88;5051263;28;20044;-39
2021/11/08 07:54:20;;;;;;;77.22;32.63;;;;;;;15.17;77.46;99733.69;5051451;28;20013;-39
2021/11/08 07:56:47;;;;;;;66.68;31.67;;;;;;;15.74;75.49;99737.59;5050333;28;20104;-39
2021/11/08 07:59:14;;;;;;;71.75;32.10;;;;;;;15.19;76.40;99728.91;5051091;28;20131;-39
2021/11/08 08:01:40;;;;;;;74.40;33.65;;;;;;;15.22;76.82;99731.09;5050929;28;20017;-39
2021/11/08 08:04:05;;;;;;;76.47;32.55;;;;;;;15.25;76.14;99725.28;5051180;28;20025;-38
2021/11/08 08:06:31;;;;;;;70.40;32.88;;;;;;;14.77;78.99;99722.81;5050931;28;20029;-38
2021/11/08 08:08:56;;;;;;;70.85;32.40;;;;;;;15.29;77.11;99730.16;5050199;28;20147;-39
2021/11/08 08:11:22;;;;;;;72.53;31.88;;;;;;;15.99;73.45;99730.06;5050588;28;20051;-37
2021/11/08 08:13:48;;;;;;;67.80;31.48;;;;;;;15.24;75.82;99720.16;5049442;28;20112;-38
2021/11/08 08:16:16;;;;;;;73.15;32.22;;;;;;;15.27;77.64;99730.44;5050074;28;20032;-39
2021/11/08 08:18:43;;;;;;;70.13;32.08;;;;;;;16.01;75.38;99730.63;5050409;28;20025;-38
2021/11/08 08:21:08;;;;;;;73.60;30.65;;;;;;;15.53;75.75;99722.91;5050643;28;20029;-38
2021/11/08 08:23:34;;;;;;;65.22;30.42;;;;;;;15.70;75.58;99726.47;5050663;28;20024;-39
2021/11/08 08:26:00;;;;;;;63.35;29.00;;;;;;;15.78;73.40;99698.50;5050528;28;20177;-38
2021/11/08 08:28:25;;;;;;;62.25;29.60;;;;;;;15.58;74.58;99725.72;5050247;28;20029;-38
2021/11/08 08:30:51;;;;;;;63.97;29.77;;;;;;;16.14;75.28;99726.00;5050567;28;20400;-37
2021/11/08 08:33:16;;;;;;;65.63;29.63;;;;;;;16.44;71.18;99723.06;5047778;28;20453;-39
2021/11/08 08:35:42;;;;;;;59.63;29.75;;;;;;;16.00;72.58;99730.84;5047718;28;20040;-38
2021/11/08 08:38:08;;;;;;;59.72;29.83;;;;;;;16.51;72.08;99721.03;5049117;28;20100;-38
2021/11/08 08:40:34;;;;;;;59.05;28.25;;;;;;;16.13;71.56;99694.88;5049062;28;20029;-38
2021/11/08 08:42:59;;;;;;;66.35;31.60;;;;;;;16.51;70.99;99715.66;5048993;28;20017;-38
2021/11/08 08:45:25;;;;;;;69.30;30.23;;;;;;;17.06;68.53;99707.91;5048840;28;20070;-38
2021/11/08 08:47:50;;;;;;;73.50;30.83;;;;;;;16.66;69.76;99712.41;5049488;28;20092;-38
2021/11/08 08:50:16;;;;;;;74.00;32.63;;;;;;;16.03;71.94;99706.25;5049622;28;20025;-38
2021/11/08 08:52:41;;;;;;;65.95;31.63;;;;;;;16.90;70.59;99701.53;5049668;28;20028;-37
2021/11/08 08:55:07;;;;;;;64.43;30.50;;;;;;;16.80;70.19;99692.22;5049666;28;20043;-38
2021/11/08 08:57:32;;;;;;;70.95;29.70;;;;;;;16.79;70.01;99698.66;5049715;28;20094;-38
2021/11/08 08:59:58;;;;;;;62.83;29.88;;;;;;;17.48;68.92;99694.78;5050020;28;20385;-38
2021/11/08 09:02:23;;;;;;;67.72;30.42;;;;;;;17.28;69.30;99686.47;5049729;28;20033;-38
2021/11/08 09:04:49;;;;;;;59.78;29.38;;;;;;;17.39;68.26;99688.22;5049746;28;20017;-38
2021/11/08 09:07:16;;;;;;;59.47;30.58;;;;;;;18.43;66.50;99685.56;5049834;28;20488;-38
2021/11/08 09:09:41;;;;;;;62.63;30.17;;;;;;;17.70;66.00;99689.38;5049380;28;20124;-38
2021/11/08 09:12:07;;;;;;;63.97;29.15;;;;;;;17.45;69.38;99691.78;5049399;28;20481;-38
2021/11/08 09:14:33;;;;;;;63.42;30.10;;;;;;;18.46;63.50;99683.16;5049565;28;20032;-38
2021/11/08 09:16:59;;;;;;;61.55;29.67;;;;;;;17.70;66.89;99697.47;5049653;28;20072;-38
2021/11/08 09:19:24;;;;;;;70.43;31.05;;;;;;;17.97;67.40;99696.72;5049423;28;20021;-39
2021/11/08 09:21:50;;;;;;;62.35;29.42;;;;;;;18.77;62.76;99688.78;5049539;28;20500;-39
2021/11/08 09:24:16;;;;;;;66.03;31.27;;;;;;;18.17;64.28;99690.72;5049404;28;20551;-38
2021/11/08 09:26:41;;;;;;;62.97;30.13;;;;;;;18.06;65.39;99689.81;5049051;28;20484;-38
2021/11/08 09:29:07;;;;;;;58.85;30.55;;;;;;;18.90;62.44;99690.25;5049169;28;20024;-38
2021/11/08 09:31:32;;;;;;;65.82;29.90;;;;;;;18.14;64.62;99683.97;5049480;28;20496;-39
2021/11/08 09:34:03;;;;;;;60.28;30.20;;;;;;;18.47;64.02;99681.31;5048907;28;20044;-38
2021/11/08 09:36:31;;;;;;;61.33;30.05;;;;;;;18.85;62.97;99682.13;5049156;28;20032;-38
2021/11/08 09:38:59;;;;;;;60.70;28.85;;;;;;;18.40;64.36;99676.13;5049135;28;20076;-37
2021/11/08 09:41:32;;;;;;;61.42;29.85;;;;;;;18.62;64.85;99673.34;5049368;28;20090;-38
2021/11/08 09:43:59;;;;;;;58.55;29.02;;;;;;;18.53;63.55;99661.41;5049153;28;20021;-37
2021/11/08 09:46:25;;;;;;;55.33;27.13;;;;;;;18.32;65.39;99665.81;5048112;28;20024;-38
2021/11/08 09:48:51;;;;;;;60.20;28.45;;;;;;;19.21;63.65;99667.00;5047560;28;20299;-38
2021/11/08 09:51:16;;;;;;;56.92;29.52;;;;;;;19.45;59.87;99661.16;5048762;28;20037;-37
2021/11/08 09:53:42;;;;;;;56.13;29.50;;;;;;;18.98;62.02;99659.31;5048858;28;20093;-38
2021/11/08 09:56:08;;;;;;;59.30;29.70;;;;;;;19.41;62.16;99660.88;5048986;28;20130;-38
2021/11/08 09:58:33;;;;;;;53.00;28.35;;;;;;;19.44;60.23;99651.41;5048644;28;20052;-38
2021/11/08 10:01:00;;;;;;;58.38;28.42;;;;;;;19.13;62.39;99651.28;5048903;28;20028;-37
2021/11/08 10:03:28;;;;;;;55.60;30.20;;;;;;;19.61;59.85;99654.75;5048541;28;20050;-39
2021/11/08 10:05:56;;;;;;;59.35;28.58;;;;;;;19.54;60.21;99648.78;5048562;28;20037;-38
2021/11/08 10:08:23;;;;;;;55.83;28.27;;;;;;;19.17;62.06;99644.28;5048673;28;20048;-38
2021/11/08 10:10:50;;;;;;;56.53;28.92;;;;;;;19.97;58.47;99635.97;5048959;28;20029;-38
2021/11/08 10:13:23;;;;;;;55.80;29.20;;;;;;;19.43;60.16;99639.81;5048738;28;20035;-38
2021/11/08 10:15:53;;;;;;;64.47;29.23;;;;;;;19.26;61.18;99634.63;5048978;28;20029;-38
2021/11/08 10:18:19;;;;;;;51.00;27.52;;;;;;;19.93;59.54;99632.16;5048573;28;20025;-38
2021/11/08 10:20:46;;;;;;;51.47;28.20;;;;;;;19.36;60.55;99628.47;5049066;28;20609;-38
2021/11/08 10:23:13;;;;;;;54.78;29.42;;;;;;;19.24;60.66;99619.78;5048571;28;20025;-38
2021/11/08 10:25:40;;;;;;;52.75;28.00;;;;;;;19.89;59.59;99621.06;5048544;28;20044;-40
2021/11/08 10:28:17;;;;;;;59.58;28.73;;;;;;;19.33;60.72;99619.00;5048318;28;20024;-38
2021/11/08 10:30:45;;;;;;;47.75;25.40;;;;;;;19.13;60.96;99614.38;5048682;28;20021;-37
2021/11/08 10:33:17;;;;;;;56.17;26.30;;;;;;;19.94;58.00;99614.06;5052498;28;20037;-38
2021/11/08 10:35:48;;;;;;;49.97;25.73;;;;;;;19.10;60.36;99601.41;5052446;28;20029;-38
2021/11/08 10:38:24;;;;;;;47.03;24.98;;;;;;;19.02;62.52;99603.78;5052491;28;20040;-37
2021/11/08 10:40:55;;;;;;;44.08;25.52;;;;;;;20.04;58.48;99601.38;5052232;28;20025;-37
2021/11/08 10:43:41;;;;;;;49.65;24.75;;;;;;;19.49;59.10;99597.47;5052170;28;20033;-38
2021/11/08 10:46:11;;;;;;;49.53;24.85;;;;;;;19.94;58.14;99597.88;5052661;28;20033;-38
2021/11/08 10:48:47;;;;;;;46.15;24.73;;;;;;;20.56;56.57;99607.59;5052727;28;20069;-38
2021/11/08 10:51:13;;;;;;;46.30;24.73;;;;;;;19.88;58.26;99597.84;5052058;28;20244;-38
2021/11/08 10:53:46;;;;;;;42.88;24.35;;;;;;;20.22;58.44;99594.63;5050998;28;20489;-38
2021/11/08 10:56:14;;;;;;;45.95;24.13;;;;;;;21.13;53.55;99588.50;5052607;28;20028;-38
2021/11/08 10:58:44;;;;;;;47.22;24.20;;;;;;;21.59;52.15;99580.16;5052224;28;20036;-37
2021/11/08 11:01:23;;;;;;;47.22;25.15;;;;;;;20.78;54.61;99585.66;5052325;28;20032;-37
2021/11/08 11:03:53;;;;;;;44.55;24.15;;;;;;;20.17;56.19;99578.41;5050480;28;20052;-38
2021/11/08 11:06:19;;;;;;;46.78;23.40;;;;;;;19.98;56.77;99578.16;5051921;28;20029;-38
2021/11/08 11:08:50;;;;;;;41.75;23.45;;;;;;;20.79;54.98;99575.63;5051830;28;20096;-38
2021/11/08 11:11:19;;;;;;;45.45;22.52;;;;;;;20.12;56.08;99573.00;5052314;28;20048;-38
2021/11/08 11:13:48;;;;;;;44.70;23.40;;;;;;;20.10;56.78;99580.56;5051842;28;20107;-39
2021/11/08 11:16:14;;;;;;;42.20;24.20;;;;;;;20.55;55.29;99565.41;5052023;28;20033;-38
2021/11/08 11:18:39;;;;;;;45.03;24.02;;;;;;;20.55;54.75;99564.59;5052153;28;20059;-38
2021/11/08 11:21:16;;;;;;;45.38;25.05;;;;;;;20.31;56.23;99567.88;5051652;28;20082;-38
2021/11/08 11:23:46;;;;;;;48.58;25.83;;;;;;;20.75;55.66;99563.75;5051790;28;20029;-38
2021/11/08 11:26:12;;;;;;;45.00;26.27;;;;;;;20.50;55.92;99568.94;5050685;28;20021;-39
2021/11/08 11:28:40;;;;;;;47.55;26.25;;;;;;;20.17;57.27;99575.72;5051946;28;20407;-38
2021/11/08 11:31:17;;;;;;;44.72;25.02;;;;;;;21.08;53.58;99570.41;5052009;28;20452;-38
2021/11/08 11:33:42;;;;;;;52.63;26.30;;;;;;;20.79;54.63;99565.66;5051962;28;20417;-38
2021/11/08 11:36:09;;;;;;;49.35;25.83;;;;;;;20.53;55.13;99556.75;5051542;28;20489;-38
2021/11/08 11:38:44;;;;;;;44.60;25.48;;;;;;;21.29;53.27;99554.88;5051605;28;20146;-39
2021/11/08 11:41:19;;;;;;;49.95;26.20;;;;;;;20.69;54.61;99549.44;5052279;28;20100;-38
2021/11/08 11:43:47;;;;;;;44.05;24.90;;;;;;;20.41;55.67;99545.41;5050555;28;20059;-38
2021/11/08 11:46:20;;;;;;;47.38;25.27;;;;;;;21.08;52.88;99546.88;5051644;28;20021;-38
2021/11/08 11:48:46;;;;;;;41.97;24.75;;;;;;;20.78;53.39;99544.28;5051428;28;20025;-38
2021/11/08 11:51:17;;;;;;;44.53;27.20;;;;;;;20.49;55.77;99550.28;5051544;28;20032;-39
2021/11/08 11:53:43;;;;;;;48.72;27.70;;;;;;;21.09;54.17;99547.66;5050132;28;20469;-38
2021/11/08 11:56:08;;;;;;;57.13;29.30;;;;;;;20.45;56.78;99554.63;5051679;28;20036;-39
2021/11/08 11:58:35;;;;;;;50.70;28.70;;;;;;;20.11;58.47;99560.59;5051314;28;20531;-38
2021/11/08 12:01:00;;;;;;;50.40;28.10;;;;;;;20.63;56.62;99553.25;5051161;28;20060;-38
2021/11/08 12:03:28;;;;;;;47.65;27.75;;;;;;;20.16;57.69;99555.19;5051169;28;20021;-39
2021/11/08 12:05:54;;;;;;;47.03;28.33;;;;;;;19.67;59.80;99558.41;5051517;28;20484;-38
2021/11/08 12:08:20;;;;;;;47.33;27.30;;;;;;;20.40;57.31;99551.91;5033352;28;20045;-38
2021/11/08 12:10:51;;;;;;;50.55;27.38;;;;;;;20.15;57.92;99558.97;5049073;28;20025;-38
2021/11/08 12:13:18;;;;;;;50.78;27.42;;;;;;;19.87;59.06;99555.72;5049550;28;20025;-38
2021/11/08 12:15:44;;;;;;;53.42;28.38;;;;;;;20.46;57.44;99553.53;5050150;28;20463;-47
2021/11/08 12:18:12;;;;;;;50.83;27.98;;;;;;;20.27;57.59;99551.38;5049989;28;20025;-39
2021/11/08 12:20:43;;;;;;;47.50;27.83;;;;;;;19.78;59.23;99553.84;5049795;28;20037;-38
2021/11/08 12:23:13;;;;;;;55.08;29.05;;;;;;;19.92;59.30;99549.53;5048028;28;20021;-38
2021/11/08 12:25:42;;;;;;;51.38;28.25;;;;;;;19.40;61.27;99548.63;5049740;28;20082;-37
2021/11/08 12:28:21;;;;;;;51.42;28.48;;;;;;;19.50;61.34;99553.25;5049668;28;20025;-39
2021/11/08 12:30:49;;;;;;;53.85;28.58;;;;;;;19.77;60.35;99534.13;5050729;28;20060;-38
2021/11/08 12:33:27;;;;;;;51.55;28.08;;;;;;;19.72;60.43;99548.44;5048851;28;20549;-38
2021/11/08 12:35:54;;;;;;;54.28;29.27;;;;;;;19.98;59.87;99544.94;5050636;28;20074;-38
2021/11/08 12:38:30;;;;;;;55.55;29.08;;;;;;;20.57;58.70;99541.59;5051002;28;20028;-38
2021/11/08 12:41:32;;;;;;;49.97;27.80;;;;;;;19.88;60.98;99548.47;5051212;28;20345;-38
2021/11/08 12:44:03;;;;;;;56.45;29.00;;;;;;;20.28;60.31;99550.31;5050774;28;20087;-38
2021/11/08 12:46:52;;;;;;;49.25;28.20;;;;;;;20.72;58.71;99543.50;5051081;28;20119;-39
2021/11/08 12:49:29;;;;;;;48.30;27.00;;;;;;;20.99;58.24;99536.91;5049821;28;20028;-48
2021/11/08 12:51:57;;;;;;;46.17;27.48;;;;;;;21.36;57.29;99539.16;5048108;28;20017;-45
2021/11/08 12:54:23;;;;;;;47.75;27.17;;;;;;;21.54;56.37;99532.28;5050507;28;20016;-47
2021/11/08 12:56:49;;;;;;;50.40;27.92;;;;;;;21.72;55.41;99533.50;5050327;28;20125;-47
2021/11/08 12:59:23;;;;;;;52.45;28.20;;;;;;;21.81;54.98;99539.94;5050283;28;20107;-47
2021/11/08 13:01:53;;;;;;;51.72;27.77;;;;;;;21.95;54.71;99539.28;5050377;28;20024;-48
2021/11/08 13:04:19;;;;;;;46.92;26.75;;;;;;;22.14;54.46;99545.66;5047966;28;20036;-48
2021/11/08 13:06:46;;;;;;;48.25;27.05;;;;;;;21.84;55.06;99542.09;5050117;28;20031;-50
2021/11/08 13:09:15;;;;;;;47.40;26.80;;;;;;;21.61;55.52;99540.91;5050077;28;20422;-49